Kezdőlap
METAR-TAF:

METAR-TAF

Repülőterek :

Teréz anya repülőtér

Tirana, Albánia

földrajzi szélesség: 41-20N, földrajzi hosszúság: 019-47E, magasság: 89 m

Jelenlegi meteorológiai megfigyelések

A jelentés 29 perccel ezelõtt készült, 12:50 UTC
Különbözõ irányokból fújó szél 2 kt
Hőmérséklet 17°C
Páratartalom 59%
Légköri nyomás 1020 hPa
Látótávolság 10 km, vagy több
felhőtlen 1500 m magasságban, és nincs gomolyfelhõ

METAR: LATI 151250Z VRB02KT CAVOK 17/09 Q1020 NOSIG

Idő: 14:19 (13:19 UTC)

Előrejelzés

A jelentés 2 órával és 19 perccel ezelõtt készült, 11:00 UTC
Az előrejelzés 15-én 12 óra UTC és 16-én 12 óra UTC között érvényes
Különbözõ irányokból fújó szél 5 kt
Látótávolság 10 km, vagy több
felhőtlen 1500 m magasságban, és nincs gomolyfelhõ

TAF: LATI 151100Z 1512/1612 VRB05KT CAVOK TX18/1612Z TN01/1605Z

Meteorológiai megfigyelések és előrejelzések több, mint 4000 repülőtéren (METAR és TAF jelentéseket).

A térképen piros és sárga pontok jelzik az elérhető meteorológiai állomásokat.

Mozgassa az egeret a pont fölött, hogy megjelenjen az állomás neve.

Azután kattintson az időjárási megfigyelések és előrejelzések megtekintéséhez.

A térkép megváltoztatása: kattintson a fekete keresztel jelölt zöld gombra ráközelítéshez, a vonallal jelölt zöld gombra távolításhoz, vagy a zöld nyilakra a szomszédos térképek eléréséhez.


METAR-TAF: